createdAt,value
2023-12-30T00:02:08.478Z,22.74
2023-12-30T00:05:10.997Z,18.44
2023-12-30T00:08:07.582Z,19
2023-12-30T00:11:07.130Z,17.240000000000002
2023-12-30T00:14:07.660Z,20.580000000000002
2023-12-30T00:17:03.242Z,21.6
2023-12-30T00:20:10.785Z,21.080000000000002
2023-12-30T00:23:08.341Z,21.560000000000002
2023-12-30T00:26:06.892Z,22.080000000000002
2023-12-30T00:29:12.428Z,25.000000000000004
2023-12-30T00:32:10.997Z,27.160000000000004
2023-12-30T00:35:13.536Z,24.9
2023-12-30T00:38:11.051Z,24.380000000000003
2023-12-30T00:41:08.604Z,27.940000000000005
2023-12-30T00:44:05.185Z,29.179999999999996
2023-12-30T00:47:11.694Z,23.9
2023-12-30T00:50:18.288Z,21.34
2023-12-30T00:53:15.801Z,21.98
2023-12-30T00:56:14.368Z,18.02
2023-12-30T00:59:16.891Z,21
2023-12-30T01:02:12.575Z,20.34
2023-12-30T01:05:11.104Z,21.22
2023-12-30T01:08:12.578Z,18.779999999999998
2023-12-30T01:11:09.105Z,19.060000000000002
2023-12-30T01:14:15.658Z,17.94
2023-12-30T01:17:12.212Z,16.5
2023-12-30T01:20:09.369Z,16.080000000000002
2023-12-30T01:23:07.335Z,17.720000000000002
2023-12-30T01:26:05.870Z,19.339999999999996
2023-12-30T01:29:03.448Z,17.220000000000002
2023-12-30T01:32:09.043Z,18.6
2023-12-30T01:35:08.595Z,18.04
2023-12-30T01:38:11.060Z,19.7
2023-12-30T01:41:08.626Z,21.279999999999998
2023-12-30T01:44:06.210Z,23.36
2023-12-30T01:47:02.764Z,27.040000000000003
2023-12-30T01:49:59.357Z,26.26
2023-12-30T01:53:02.132Z,16.16
2023-12-30T01:55:59.420Z,16.979999999999997
2023-12-30T01:58:56.966Z,15.680000000000001
2023-12-30T02:01:55.613Z,14.779999999999998
2023-12-30T02:04:52.121Z,12.52
2023-12-30T02:07:53.635Z,13.280000000000001
2023-12-30T02:10:51.160Z,15.7
2023-12-30T02:13:49.750Z,17.28
2023-12-30T02:16:48.271Z,18.720000000000002
2023-12-30T02:19:55.559Z,17.04
2023-12-30T02:22:54.348Z,17.18
2023-12-30T02:25:55.925Z,19.080000000000002
2023-12-30T02:28:51.453Z,18.6
2023-12-30T02:31:52.085Z,16.52
2023-12-30T02:34:58.583Z,17.46
2023-12-30T02:37:54.124Z,17.300000000000004
2023-12-30T02:40:51.647Z,18.060000000000002
2023-12-30T02:43:55.236Z,17.459999999999997
2023-12-30T02:46:53.746Z,17.640000000000004
2023-12-30T02:49:53.407Z,18.4
2023-12-30T02:52:59.023Z,14.060000000000002
2023-12-30T02:55:57.416Z,16.580000000000002
2023-12-30T02:58:56.969Z,16.18
2023-12-30T03:01:53.653Z,15.860000000000003
2023-12-30T03:04:50.194Z,17.46
2023-12-30T03:07:50.613Z,14.62
2023-12-30T03:10:46.306Z,17.18
2023-12-30T03:13:43.764Z,17.86
2023-12-30T03:16:40.306Z,18.98
2023-12-30T03:19:44.888Z,18.119999999999997
2023-12-30T03:22:41.457Z,17.6
2023-12-30T03:25:38.990Z,16.139999999999997
2023-12-30T03:28:44.466Z,21.119999999999997
2023-12-30T03:31:42.102Z,18.18
2023-12-30T03:34:39.665Z,19.080000000000002
2023-12-30T03:37:40.163Z,20.979999999999997
2023-12-30T03:40:36.775Z,19
2023-12-30T03:43:41.272Z,18.16
2023-12-30T03:46:38.815Z,18.18
2023-12-30T03:49:35.530Z,20.380000000000003
2023-12-30T03:52:40.895Z,31.46
2023-12-30T03:55:37.633Z,37.36
2023-12-30T03:58:34.060Z,38.1
2023-12-30T04:01:30.623Z,34.46
2023-12-30T04:04:36.110Z,38.32
2023-12-30T04:07:33.711Z,38.22
2023-12-30T04:10:33.357Z,25.02
2023-12-30T04:13:30.878Z,22.659999999999997
2023-12-30T04:16:28.366Z,21.939999999999998
2023-12-30T04:19:28.909Z,19.24
2023-12-30T04:22:26.443Z,19.860000000000003
2023-12-30T04:25:22.061Z,18.640000000000004
2023-12-30T04:28:18.648Z,17.220000000000002
2023-12-30T04:31:17.262Z,15.88
2023-12-30T04:34:15.881Z,17.080000000000002
2023-12-30T04:37:12.242Z,17.32
2023-12-30T04:40:09.862Z,19.119999999999997
2023-12-30T04:43:08.406Z,19.8
2023-12-30T04:46:04.901Z,21.72
2023-12-30T04:49:03.553Z,20.759999999999998
2023-12-30T04:52:02.193Z,20.72
2023-12-30T04:55:00.639Z,21.24
2023-12-30T04:57:58.183Z,20.9
2023-12-30T05:00:57.785Z,20.36
2023-12-30T05:03:54.309Z,18.04
2023-12-30T05:06:52.779Z,18.360000000000003
2023-12-30T05:09:54.398Z,19.7
2023-12-30T05:12:51.013Z,18.82
2023-12-30T05:15:56.450Z,16.860000000000003
2023-12-30T05:18:57.135Z,24.240000000000002
2023-12-30T05:21:55.534Z,22.520000000000003
2023-12-30T05:25:01.070Z,17.54
2023-12-30T05:28:01.637Z,14.459999999999999
2023-12-30T05:30:58.422Z,14.920000000000002
2023-12-30T05:34:04.716Z,21.7
2023-12-30T05:37:02.305Z,20.48
2023-12-30T05:40:00.932Z,16.74
2023-12-30T05:43:07.418Z,17.18
2023-12-30T05:46:06.999Z,18.580000000000002
2023-12-30T05:49:08.625Z,22.360000000000003
2023-12-30T05:52:06.061Z,21.3
2023-12-30T05:55:03.619Z,18.94
2023-12-30T05:58:00.199Z,17.74
2023-12-30T06:00:57.784Z,15.98
2023-12-30T06:03:56.322Z,15.959999999999999
2023-12-30T06:06:56.796Z,14.540000000000001
2023-12-30T06:09:54.329Z,14.98
2023-12-30T06:12:53.903Z,12.48
2023-12-30T06:15:58.470Z,11.34
2023-12-30T06:18:56.015Z,10.459999999999999
2023-12-30T06:21:52.563Z,12.579999999999998
2023-12-30T06:24:50.037Z,14
2023-12-30T06:27:48.619Z,14.36
2023-12-30T06:30:49.204Z,14.9
2023-12-30T06:33:48.784Z,15.280000000000001
2023-12-30T06:36:52.402Z,19.1
2023-12-30T06:39:52.874Z,34.760000000000005
2023-12-30T06:42:54.402Z,25.04
2023-12-30T06:45:53.059Z,24.02
2023-12-30T06:48:50.476Z,25.22
2023-12-30T06:51:48.045Z,21.98
2023-12-30T06:54:45.565Z,24.48
2023-12-30T06:57:51.152Z,21.619999999999997
2023-12-30T07:00:47.770Z,20.3
2023-12-30T07:03:45.330Z,17.98
2023-12-30T07:06:42.819Z,17.92
2023-12-30T07:09:52.361Z,17.5
2023-12-30T07:12:50.889Z,15.66
2023-12-30T07:15:48.551Z,15.1
2023-12-30T07:18:49.070Z,18.639999999999997
2023-12-30T07:21:55.539Z,19.580000000000002
2023-12-30T07:24:54.073Z,23.86
2023-12-30T07:27:51.717Z,25.860000000000003
2023-12-30T07:30:52.344Z,26.120000000000005
2023-12-30T07:33:50.935Z,33.059999999999995
2023-12-30T07:36:49.292Z,44.76
2023-12-30T07:39:49.933Z,45.48
2023-12-30T07:42:47.403Z,36.18
2023-12-30T07:45:45.936Z,33.64
2023-12-30T07:48:41.615Z,33.3
2023-12-30T07:51:40.005Z,34.08
2023-12-30T07:54:46.630Z,21.240000000000002
2023-12-30T07:57:44.137Z,20.419999999999998
2023-12-30T08:00:45.531Z,22.42
2023-12-30T08:03:42.312Z,24.78
2023-12-30T08:06:42.829Z,25.9
2023-12-30T08:09:49.348Z,38.98
2023-12-30T08:12:48.043Z,27.919999999999998
2023-12-30T08:15:52.465Z,18.9
2023-12-30T08:18:58.065Z,23.660000000000004
2023-12-30T08:21:55.562Z,20.819999999999997
2023-12-30T08:24:59.087Z,21.979999999999997
2023-12-30T08:27:57.693Z,19.479999999999997
2023-12-30T08:30:55.766Z,17.8
2023-12-30T08:34:01.985Z,22.459999999999997
2023-12-30T08:37:09.375Z,28.080000000000002
2023-12-30T08:40:06.861Z,23.76
2023-12-30T08:43:17.407Z,17.64
2023-12-30T08:46:13.309Z,20.740000000000002
2023-12-30T08:49:11.240Z,24.04
2023-12-30T08:52:12.126Z,19.799999999999997
2023-12-30T08:55:19.547Z,21.880000000000003
2023-12-30T08:58:16.124Z,18.46
2023-12-30T09:01:22.739Z,18.759999999999998
2023-12-30T09:04:20.318Z,18.76
2023-12-30T09:07:18.819Z,17.8
2023-12-30T09:10:20.447Z,17.06
2023-12-30T09:13:17.857Z,17.000000000000004
2023-12-30T09:16:16.409Z,18.62
2023-12-30T09:19:23.016Z,18.779999999999998
2023-12-30T09:22:24.508Z,16.22
2023-12-30T09:25:26.091Z,16.4
2023-12-30T09:31:37.168Z,14.540000000000001
2023-12-30T09:34:41.754Z,15.5
2023-12-30T09:37:45.193Z,13.24
2023-12-30T09:40:44.788Z,14.5
2023-12-30T09:43:42.357Z,13.959999999999999
2023-12-30T09:46:43.914Z,12.68
2023-12-30T09:49:43.394Z,12
2023-12-30T09:52:42.953Z,12.819999999999999
2023-12-30T09:55:39.574Z,15.839999999999998
2023-12-30T09:58:47.328Z,10.459999999999999
2023-12-30T10:01:46.643Z,10.3
2023-12-30T10:04:44.224Z,11.2
2023-12-30T10:07:42.788Z,12.28
2023-12-30T10:10:43.292Z,9.98
2023-12-30T10:13:41.795Z,11.34
2023-12-30T10:16:40.369Z,8.959999999999999
2023-12-30T10:19:41.881Z,9.2
2023-12-30T10:22:40.678Z,9.74
2023-12-30T10:25:39.113Z,13
2023-12-30T10:28:40.604Z,12.860000000000003
2023-12-30T10:31:37.178Z,9.76
2023-12-30T10:34:36.737Z,8.440000000000001
2023-12-30T10:37:36.277Z,8.540000000000001
2023-12-30T10:40:37.785Z,11.02
2023-12-30T10:43:37.271Z,8.16
2023-12-30T10:46:37.276Z,7.779999999999999
2023-12-30T10:49:40.399Z,7.220000000000001
2023-12-30T10:53:01.086Z,13.98
2023-12-30T10:56:05.402Z,10.040000000000001
2023-12-30T10:59:05.915Z,11.14
2023-12-30T11:02:09.599Z,11.6
2023-12-30T11:05:07.096Z,12.34
2023-12-30T11:08:04.585Z,11.779999999999998
2023-12-30T11:11:08.209Z,10.42
2023-12-30T11:14:12.694Z,10.459999999999999
2023-12-30T11:17:24.342Z,7.7
2023-12-30T11:20:31.952Z,7.660000000000001
2023-12-30T11:23:29.281Z,8.84
2023-12-30T11:26:29.847Z,6.9
2023-12-30T11:29:27.482Z,7.42
2023-12-30T11:32:25.054Z,8.379999999999999
2023-12-30T11:35:27.477Z,7.92
2023-12-30T11:38:32.490Z,7.5200000000000005
2023-12-30T11:41:31.585Z,7.8
2023-12-30T11:44:40.126Z,6.6
2023-12-30T11:47:45.833Z,11.259999999999998
2023-12-30T11:50:53.211Z,10.4
2023-12-30T11:54:01.778Z,8.48
2023-12-30T11:57:00.290Z,7.06
2023-12-30T11:59:57.814Z,7.659999999999999
2023-12-30T12:02:55.368Z,8.120000000000001
2023-12-30T12:05:52.972Z,7.82
2023-12-30T12:08:49.506Z,8.559999999999999
2023-12-30T12:11:47.077Z,8.1
2023-12-30T12:14:54.601Z,7.42
2023-12-30T12:17:55.031Z,7.3
2023-12-30T12:21:00.759Z,6.500000000000002
2023-12-30T12:23:58.238Z,7.92
2023-12-30T12:26:58.763Z,11.58
2023-12-30T12:29:57.368Z,9.459999999999999
2023-12-30T12:32:56.943Z,6.779999999999999
2023-12-30T12:36:05.452Z,5.7
2023-12-30T12:39:04.972Z,6.5
2023-12-30T12:42:02.235Z,7.220000000000001
2023-12-30T12:45:03.072Z,8.74
2023-12-30T12:48:01.778Z,6.4799999999999995
2023-12-30T12:50:58.399Z,7.8
2023-12-30T12:53:56.931Z,9.6
2023-12-30T12:56:57.281Z,7.3
2023-12-30T12:59:54.860Z,8.78
2023-12-30T13:02:57.659Z,8.180000000000001
2023-12-30T13:05:55.989Z,15.62
2023-12-30T13:09:01.466Z,11
2023-12-30T13:12:03.039Z,12.48
2023-12-30T13:15:19.771Z,9.040000000000001
2023-12-30T13:18:21.234Z,10.34
2023-12-30T13:21:17.750Z,11.459999999999999
2023-12-30T13:24:16.239Z,16.18
2023-12-30T13:27:23.830Z,15.76
2023-12-30T13:30:24.437Z,10.52
2023-12-30T13:33:23.258Z,10.62
2023-12-30T13:36:20.397Z,10.24
2023-12-30T13:39:28.859Z,17.2
2023-12-30T13:42:27.437Z,12.7
2023-12-30T13:45:28.016Z,13.02
2023-12-30T13:50:19.270Z,12.8
2023-12-30T13:53:20.878Z,14.36
2023-12-30T13:56:22.358Z,16.359999999999996
2023-12-30T13:59:19.940Z,20.82
2023-12-30T14:02:19.832Z,20.580000000000002
2023-12-30T14:05:19.252Z,44.940000000000005
2023-12-30T14:08:32.595Z,28.78
2023-12-30T14:11:34.079Z,34.94
2023-12-30T14:14:41.646Z,41.980000000000004
2023-12-30T14:17:46.230Z,41.160000000000004
2023-12-30T14:20:43.731Z,49.279999999999994
2023-12-30T14:23:46.284Z,29.2
2023-12-30T14:26:44.838Z,38.42
2023-12-30T14:29:42.409Z,22.2
2023-12-30T14:32:43.291Z,24.42
2023-12-30T14:35:40.488Z,23.26
2023-12-30T14:38:40.011Z,21.82
2023-12-30T14:41:37.597Z,38.660000000000004
2023-12-30T14:44:37.161Z,76.06
2023-12-30T14:47:32.761Z,50.88
2023-12-30T14:50:32.289Z,60.32000000000001
2023-12-30T14:53:29.804Z,118
2023-12-30T14:56:34.353Z,56.7
2023-12-30T14:59:31.865Z,57.65999999999999
2023-12-30T15:02:39.536Z,83.92
2023-12-30T15:05:35.031Z,47.46
2023-12-30T15:08:42.570Z,34.879999999999995
2023-12-30T15:11:40.093Z,28.639999999999997
2023-12-30T15:14:41.640Z,63.46
2023-12-30T15:17:43.352Z,45.660000000000004
2023-12-30T15:20:45.715Z,61.86
2023-12-30T15:23:48.277Z,97.12
2023-12-30T15:26:49.781Z,115.25999999999999
2023-12-30T15:29:56.336Z,83.91999999999999
2023-12-30T15:32:59.798Z,66.63999999999999
2023-12-30T15:36:04.424Z,96.36
2023-12-30T15:39:06.022Z,95.75999999999999
2023-12-30T15:45:17.044Z,200.78000000000003
2023-12-30T15:48:19.835Z,119.05999999999999
2023-12-30T15:51:20.147Z,92.6
2023-12-30T15:54:26.685Z,95.13999999999999
2023-12-30T15:57:31.220Z,119.7
2023-12-30T16:00:34.783Z,131.33999999999997
2023-12-30T16:03:36.374Z,135.42000000000002
2023-12-30T16:06:38.826Z,124.74000000000001
2023-12-30T16:09:36.463Z,109.05999999999999
2023-12-30T16:12:38.936Z,125.9
2023-12-30T16:15:38.761Z,178.48
2023-12-30T16:18:42.055Z,99.42
2023-12-30T16:21:47.434Z,98.55999999999999
2023-12-30T16:24:47.326Z,140.71999999999997
2023-12-30T16:27:54.664Z,104.4
2023-12-30T16:30:58.226Z,95.9
2023-12-30T16:34:05.982Z,115.34
2023-12-30T16:37:05.308Z,69.78
2023-12-30T16:40:11.812Z,144.5
2023-12-30T16:43:15.632Z,102.7
2023-12-30T16:46:18.927Z,107.22
2023-12-30T16:49:28.455Z,88.02000000000001
2023-12-30T16:52:29.996Z,78.72
2023-12-30T16:55:32.587Z,55.779999999999994
2023-12-30T16:58:35.098Z,57.279999999999994
2023-12-30T17:01:32.720Z,47.620000000000005
2023-12-30T17:04:35.310Z,73.88000000000001
2023-12-30T17:07:37.760Z,85.38
2023-12-30T17:10:41.322Z,62.4
2023-12-30T17:13:46.739Z,72.44000000000001
2023-12-30T17:16:51.206Z,99.36
2023-12-30T17:19:48.869Z,89.5
2023-12-30T17:22:52.431Z,74.62
2023-12-30T17:25:59.229Z,70.7
2023-12-30T17:29:00.484Z,79.12
2023-12-30T17:31:59.018Z,97.72
2023-12-30T17:35:05.578Z,120.16
2023-12-30T17:38:09.364Z,107.08000000000001
2023-12-30T17:41:11.627Z,167.61999999999998
2023-12-30T17:44:15.185Z,152.18
2023-12-30T17:47:13.751Z,127.34
2023-12-30T17:50:12.308Z,132.54000000000002
2023-12-30T17:53:19.892Z,105.47999999999999
2023-12-30T17:56:16.383Z,122.47999999999999
2023-12-30T17:59:12.920Z,91.91999999999999
2023-12-30T18:02:19.668Z,57.36
2023-12-30T18:05:17.083Z,66.22
2023-12-30T18:08:13.596Z,97.85999999999999
2023-12-30T18:11:10.154Z,75.82000000000001
2023-12-30T18:14:09.716Z,58.379999999999995
2023-12-30T18:17:16.268Z,54.279999999999994
2023-12-30T18:20:18.799Z,102.88
2023-12-30T18:23:16.344Z,83.14000000000001
2023-12-30T18:26:11.927Z,88.22
2023-12-30T18:29:09.445Z,101.8
2023-12-30T18:32:07.989Z,92.42
2023-12-30T18:35:04.644Z,84.9
2023-12-30T18:38:03.096Z,88.11999999999999
2023-12-30T18:41:00.747Z,86.93999999999998
2023-12-30T18:43:56.262Z,94.64
2023-12-30T18:46:54.810Z,99.06
2023-12-30T18:49:52.392Z,86.58000000000001
2023-12-30T18:52:52.887Z,89.08
2023-12-30T18:55:48.480Z,48.64
2023-12-30T18:58:50.031Z,59.160000000000004
2023-12-30T19:01:48.385Z,80
2023-12-30T19:04:54.195Z,89.22
2023-12-30T19:07:51.641Z,53.04
2023-12-30T19:10:55.086Z,44.940000000000005
2023-12-30T19:13:52.782Z,39.459999999999994
2023-12-30T19:16:48.354Z,67.62
2023-12-30T19:19:43.872Z,62.279999999999994
2023-12-30T19:22:41.486Z,39.82000000000001
2023-12-30T19:25:39.094Z,38.82
2023-12-30T19:28:38.570Z,39.7
2023-12-30T19:31:36.194Z,49.24000000000001
2023-12-30T19:34:33.744Z,37.739999999999995
2023-12-30T19:37:34.985Z,38.92
2023-12-30T19:40:33.800Z,41.64
2023-12-30T19:43:35.490Z,43.92
2023-12-30T19:49:43.462Z,48.46
2023-12-30T19:52:45.947Z,71.67999999999999
2023-12-30T19:55:50.476Z,70.56
2023-12-30T19:58:49.018Z,82.03999999999999
2023-12-30T20:01:51.627Z,76.25999999999999
2023-12-30T20:04:49.630Z,71.73999999999998
2023-12-30T20:07:49.773Z,85.46000000000001
2023-12-30T20:10:49.258Z,89.76
2023-12-30T20:13:47.838Z,68.66
2023-12-30T20:16:44.410Z,76.8
2023-12-30T20:19:41.933Z,77.67999999999999
2023-12-30T20:22:37.488Z,77.47999999999999
2023-12-30T20:25:33.079Z,90.18
2023-12-30T20:28:35.860Z,84.5
2023-12-30T20:31:40.817Z,85.53999999999999
2023-12-30T20:34:42.701Z,76.38
2023-12-30T20:37:45.227Z,79.24000000000001
2023-12-30T20:40:48.778Z,74.28
2023-12-30T20:43:55.208Z,93.82
2023-12-30T20:46:50.830Z,80.08
2023-12-30T20:49:53.445Z,72.03999999999999
2023-12-30T20:52:53.916Z,74.86
2023-12-30T20:55:58.453Z,65.82
2023-12-30T20:59:00.997Z,67.26
2023-12-30T21:02:01.554Z,69.5
2023-12-30T21:05:05.065Z,73.82000000000001
2023-12-30T21:08:11.692Z,67.03999999999999
2023-12-30T21:11:14.169Z,67.1
2023-12-30T21:14:14.788Z,78.7
2023-12-30T21:17:16.207Z,75.3
2023-12-30T21:20:13.876Z,63.58
2023-12-30T21:23:15.331Z,70.61999999999999
2023-12-30T21:26:22.885Z,78.22
2023-12-30T21:29:24.431Z,84.54
2023-12-30T21:32:27.071Z,77.46000000000001
2023-12-30T21:35:27.535Z,53.18000000000001
2023-12-30T21:38:33.067Z,39.58
2023-12-30T21:41:40.612Z,42.4
2023-12-30T21:44:41.125Z,42.64
2023-12-30T21:47:44.726Z,42.2
2023-12-30T21:50:46.304Z,40.98
2023-12-30T21:53:52.779Z,43.42
2023-12-30T21:56:58.315Z,41.980000000000004
2023-12-30T22:00:09.836Z,44
2023-12-30T22:03:10.390Z,43.16
2023-12-30T22:06:07.931Z,44.06
2023-12-30T22:09:09.449Z,45.14
2023-12-30T22:12:21.021Z,45.519999999999996
2023-12-30T22:15:30.506Z,47.4
2023-12-30T22:18:32.164Z,47.760000000000005
2023-12-30T22:21:33.586Z,47.46
2023-12-30T22:24:35.147Z,52.14
2023-12-30T22:27:36.695Z,51.199999999999996
2023-12-30T22:30:40.268Z,53.98
2023-12-30T22:33:38.939Z,54.779999999999994
2023-12-30T22:36:36.363Z,57.660000000000004
2023-12-30T22:39:37.901Z,62.580000000000005
2023-12-30T22:42:40.424Z,59.760000000000005
2023-12-30T22:45:42.981Z,70.17999999999999
2023-12-30T22:48:46.609Z,76.61999999999999
2023-12-30T22:51:51.119Z,73
2023-12-30T22:54:48.618Z,78.88
2023-12-30T22:57:50.181Z,79.32000000000001
2023-12-30T23:01:02.807Z,76.52000000000001
2023-12-30T23:04:01.188Z,95.97999999999999
2023-12-30T23:07:13.797Z,99.16
2023-12-30T23:10:15.398Z,94.34
2023-12-30T23:13:26.918Z,132.16
2023-12-30T23:16:38.371Z,165.78000000000003
2023-12-30T23:19:47.961Z,130.84
2023-12-30T23:22:49.496Z,111.74000000000001
2023-12-30T23:25:50.285Z,94.4
2023-12-30T23:28:50.542Z,68.24
2023-12-30T23:31:54.116Z,61.36
2023-12-30T23:34:56.662Z,56.5
2023-12-30T23:37:57.122Z,43.260000000000005
2023-12-30T23:40:59.679Z,39.980000000000004
2023-12-30T23:44:01.254Z,35.16
2023-12-30T23:46:58.803Z,38.620000000000005
2023-12-30T23:49:59.345Z,36.3
2023-12-30T23:53:02.196Z,39.4
2023-12-30T23:56:04.457Z,37.879999999999995
2023-12-30T23:59:08.924Z,35.56
